sensor_id;sensor_type;location;lat;lon;timestamp;temperature;humidity
37322;DHT22;23697;48.684;9.032;2023-02-28T00:00:00;-3274.20;66.50
37322;DHT22;23697;48.684;9.032;2023-02-28T00:02:33;-3274.10;66.70
37322;DHT22;23697;48.684;9.032;2023-02-28T00:05:00;-3274.10;66.90
37322;DHT22;23697;48.684;9.032;2023-02-28T00:07:29;-3274.20;66.60
37322;DHT22;23697;48.684;9.032;2023-02-28T00:09:55;-3274.20;66.70
37322;DHT22;23697;48.684;9.032;2023-02-28T00:12:23;-3274.10;66.90
37322;DHT22;23697;48.684;9.032;2023-02-28T00:14:51;-3274.20;66.80
37322;DHT22;23697;48.684;9.032;2023-02-28T00:17:18;-3274.10;66.90
37322;DHT22;23697;48.684;9.032;2023-02-28T00:19:46;-3274.00;66.90
37322;DHT22;23697;48.684;9.032;2023-02-28T00:22:13;-3274.00;67.10
37322;DHT22;23697;48.684;9.032;2023-02-28T00:24:40;-3274.00;67.50
37322;DHT22;23697;48.684;9.032;2023-02-28T00:27:08;-3274.00;67.40
37322;DHT22;23697;48.684;9.032;2023-02-28T00:29:34;-3274.00;67.60
37322;DHT22;23697;48.684;9.032;2023-02-28T00:32:03;-3273.90;67.90
37322;DHT22;23697;48.684;9.032;2023-02-28T00:34:31;-3273.90;68.00
37322;DHT22;23697;48.684;9.032;2023-02-28T00:37:03;-3273.90;68.10
37322;DHT22;23697;48.684;9.032;2023-02-28T00:39:30;-3273.80;68.40
37322;DHT22;23697;48.684;9.032;2023-02-28T00:41:57;-3273.80;68.60
37322;DHT22;23697;48.684;9.032;2023-02-28T00:44:24;-3273.80;68.70
37322;DHT22;23697;48.684;9.032;2023-02-28T00:46:51;-3273.80;68.60
37322;DHT22;23697;48.684;9.032;2023-02-28T00:49:21;-3273.80;68.70
37322;DHT22;23697;48.684;9.032;2023-02-28T00:51:48;-3273.80;68.90
37322;DHT22;23697;48.684;9.032;2023-02-28T00:54:15;-3273.70;69.20
37322;DHT22;23697;48.684;9.032;2023-02-28T00:56:42;-3273.80;69.00
37322;DHT22;23697;48.684;9.032;2023-02-28T00:59:08;-3273.80;69.00
37322;DHT22;23697;48.684;9.032;2023-02-28T01:01:36;-3273.80;69.00
37322;DHT22;23697;48.684;9.032;2023-02-28T01:04:03;-3273.70;69.20
37322;DHT22;23697;48.684;9.032;2023-02-28T01:06:34;-3273.70;69.20
37322;DHT22;23697;48.684;9.032;2023-02-28T01:09:01;-3273.70;69.40
37322;DHT22;23697;48.684;9.032;2023-02-28T01:11:28;-3273.80;69.30
37322;DHT22;23697;48.684;9.032;2023-02-28T01:13:55;-3273.70;69.40
37322;DHT22;23697;48.684;9.032;2023-02-28T01:16:22;-3273.70;69.70
37322;DHT22;23697;48.684;9.032;2023-02-28T01:18:49;-3273.50;69.90
37322;DHT22;23697;48.684;9.032;2023-02-28T01:21:18;-3273.70;70.00
37322;DHT22;23697;48.684;9.032;2023-02-28T01:23:47;-3273.60;70.20
37322;DHT22;23697;48.684;9.032;2023-02-28T01:26:16;-3273.60;70.40
37322;DHT22;23697;48.684;9.032;2023-02-28T01:28:43;-3273.60;70.40
37322;DHT22;23697;48.684;9.032;2023-02-28T01:31:10;-3273.60;70.60
37322;DHT22;23697;48.684;9.032;2023-02-28T01:33:37;-3273.60;70.70
37322;DHT22;23697;48.684;9.032;2023-02-28T01:36:06;-3273.60;70.70
37322;DHT22;23697;48.684;9.032;2023-02-28T01:38:34;-3273.60;71.00
37322;DHT22;23697;48.684;9.032;2023-02-28T01:41:03;-3273.60;71.10
37322;DHT22;23697;48.684;9.032;2023-02-28T01:43:32;-3273.50;71.50
37322;DHT22;23697;48.684;9.032;2023-02-28T01:45:59;-3273.50;71.60
37322;DHT22;23697;48.684;9.032;2023-02-28T01:48:27;-3273.50;71.70
37322;DHT22;23697;48.684;9.032;2023-02-28T05:21:28;-3274.00;78.20
37322;DHT22;23697;48.684;9.032;2023-02-28T05:24:01;-3274.10;78.30
37322;DHT22;23697;48.684;9.032;2023-02-28T05:26:29;-3274.00;78.30
37322;DHT22;23697;48.684;9.032;2023-02-28T05:28:56;-3274.10;78.60
37322;DHT22;23697;48.684;9.032;2023-02-28T05:31:24;-3274.10;78.50
37322;DHT22;23697;48.684;9.032;2023-02-28T05:33:51;-3274.00;78.60
37322;DHT22;23697;48.684;9.032;2023-02-28T05:36:18;-3274.00;78.70
37322;DHT22;23697;48.684;9.032;2023-02-28T05:38:47;-3274.00;78.90
37322;DHT22;23697;48.684;9.032;2023-02-28T05:41:15;-3274.00;79.20
37322;DHT22;23697;48.684;9.032;2023-02-28T05:43:42;-3274.00;79.20
37322;DHT22;23697;48.684;9.032;2023-02-28T05:46:10;-3274.10;78.90
37322;DHT22;23697;48.684;9.032;2023-02-28T05:48:38;-3274.10;79.10
37322;DHT22;23697;48.684;9.032;2023-02-28T05:51:06;-3274.10;79.20
37322;DHT22;23697;48.684;9.032;2023-02-28T05:53:33;-3274.10;79.30
37322;DHT22;23697;48.684;9.032;2023-02-28T05:56:02;-3274.10;79.30
37322;DHT22;23697;48.684;9.032;2023-02-28T05:58:29;-3274.00;79.40
37322;DHT22;23697;48.684;9.032;2023-02-28T06:00:57;-3274.10;79.60
37322;DHT22;23697;48.684;9.032;2023-02-28T06:03:24;-3274.10;79.40
37322;DHT22;23697;48.684;9.032;2023-02-28T06:05:51;-3274.10;79.70
37322;DHT22;23697;48.684;9.032;2023-02-28T06:08:17;-3274.10;79.70
37322;DHT22;23697;48.684;9.032;2023-02-28T06:10:45;-3274.10;80.00
37322;DHT22;23697;48.684;9.032;2023-02-28T06:13:13;-3274.10;80.20
37322;DHT22;23697;48.684;9.032;2023-02-28T06:15:40;-3274.10;80.30
37322;DHT22;23697;48.684;9.032;2023-02-28T06:18:07;-3274.10;80.40
37322;DHT22;23697;48.684;9.032;2023-02-28T06:20:34;-3274.10;80.50
37322;DHT22;23697;48.684;9.032;2023-02-28T06:23:01;-3274.10;80.70
37322;DHT22;23697;48.684;9.032;2023-02-28T06:25:28;-3274.10;80.70
37322;DHT22;23697;48.684;9.032;2023-02-28T06:27:55;-3274.10;80.80
37322;DHT22;23697;48.684;9.032;2023-02-28T06:30:23;-3274.10;81.00
37322;DHT22;23697;48.684;9.032;2023-02-28T06:32:52;-3274.00;80.90
37322;DHT22;23697;48.684;9.032;2023-02-28T06:35:19;-3274.00;81.10
37322;DHT22;23697;48.684;9.032;2023-02-28T06:37:46;-3274.10;81.30
37322;DHT22;23697;48.684;9.032;2023-02-28T06:40:13;-3274.20;81.10
37322;DHT22;23697;48.684;9.032;2023-02-28T06:42:40;-3274.20;81.20
37322;DHT22;23697;48.684;9.032;2023-02-28T06:45:08;-3274.30;81.10
37322;DHT22;23697;48.684;9.032;2023-02-28T06:47:37;-3274.20;81.00
37322;DHT22;23697;48.684;9.032;2023-02-28T06:50:06;-3274.30;80.90
37322;DHT22;23697;48.684;9.032;2023-02-28T06:52:33;-3274.20;80.80
37322;DHT22;23697;48.684;9.032;2023-02-28T06:55:01;-3274.20;80.80
37322;DHT22;23697;48.684;9.032;2023-02-28T06:57:29;-3274.30;80.80
37322;DHT22;23697;48.684;9.032;2023-02-28T06:59:57;-3274.30;80.70
37322;DHT22;23697;48.684;9.032;2023-02-28T07:02:24;-3274.30;80.40
37322;DHT22;23697;48.684;9.032;2023-02-28T07:04:53;-3274.30;80.20
37322;DHT22;23697;48.684;9.032;2023-02-28T07:07:19;-3274.40;80.30
37322;DHT22;23697;48.684;9.032;2023-02-28T07:09:46;-3274.40;80.10
37322;DHT22;23697;48.684;9.032;2023-02-28T07:12:13;-3274.50;79.40
37322;DHT22;23697;48.684;9.032;2023-02-28T07:14:40;-3274.50;79.10
37322;DHT22;23697;48.684;9.032;2023-02-28T07:17:07;-3274.50;79.00
37322;DHT22;23697;48.684;9.032;2023-02-28T07:19:34;-3274.50;78.90
37322;DHT22;23697;48.684;9.032;2023-02-28T07:22:02;-3274.60;78.60
37322;DHT22;23697;48.684;9.032;2023-02-28T07:24:30;-3274.60;78.80
37322;DHT22;23697;48.684;9.032;2023-02-28T07:26:57;-3274.70;78.60
37322;DHT22;23697;48.684;9.032;2023-02-28T07:29:24;-3274.70;78.50
37322;DHT22;23697;48.684;9.032;2023-02-28T07:31:51;-3274.70;78.00
37322;DHT22;23697;48.684;9.032;2023-02-28T07:34:18;-3274.70;77.90
37322;DHT22;23697;48.684;9.032;2023-02-28T07:36:45;-3274.80;77.80
37322;DHT22;23697;48.684;9.032;2023-02-28T07:39:13;-3274.80;77.80
37322;DHT22;23697;48.684;9.032;2023-02-28T07:41:40;-3274.80;77.70
37322;DHT22;23697;48.684;9.032;2023-02-28T07:44:09;-3274.80;77.20
37322;DHT22;23697;48.684;9.032;2023-02-28T07:46:37;-3274.80;77.00
37322;DHT22;23697;48.684;9.032;2023-02-28T07:49:04;-3274.90;77.00
37322;DHT22;23697;48.684;9.032;2023-02-28T07:51:31;-3274.90;76.80
37322;DHT22;23697;48.684;9.032;2023-02-28T07:53:58;-3274.90;77.00
37322;DHT22;23697;48.684;9.032;2023-02-28T07:56:26;-3275.00;77.00
37322;DHT22;23697;48.684;9.032;2023-02-28T07:58:53;-3275.10;76.30
37322;DHT22;23697;48.684;9.032;2023-02-28T08:01:20;-3275.10;76.20
37322;DHT22;23697;48.684;9.032;2023-02-28T08:03:47;-3275.10;76.20
37322;DHT22;23697;48.684;9.032;2023-02-28T08:06:19;-3275.20;76.00
37322;DHT22;23697;48.684;9.032;2023-02-28T08:08:46;-3275.20;75.80
37322;DHT22;23697;48.684;9.032;2023-02-28T08:11:21;-3275.20;75.20
37322;DHT22;23697;48.684;9.032;2023-02-28T08:13:48;-3275.20;75.10
37322;DHT22;23697;48.684;9.032;2023-02-28T08:16:15;-3275.20;75.10
37322;DHT22;23697;48.684;9.032;2023-02-28T08:18:46;-3275.20;74.80
37322;DHT22;23697;48.684;9.032;2023-02-28T08:21:13;-3275.20;74.80
37322;DHT22;23697;48.684;9.032;2023-02-28T08:23:40;-3275.20;74.70
37322;DHT22;23697;48.684;9.032;2023-02-28T08:26:07;-3275.20;74.50
37322;DHT22;23697;48.684;9.032;2023-02-28T08:28:35;-3275.10;74.80
37322;DHT22;23697;48.684;9.032;2023-02-28T08:31:07;-3275.10;74.50
37322;DHT22;23697;48.684;9.032;2023-02-28T08:33:34;-3275.20;74.70
37322;DHT22;23697;48.684;9.032;2023-02-28T08:36:01;-3275.20;74.50
37322;DHT22;23697;48.684;9.032;2023-02-28T08:38:28;-3275.20;74.20
37322;DHT22;23697;48.684;9.032;2023-02-28T08:40:57;-3275.20;74.50
37322;DHT22;23697;48.684;9.032;2023-02-28T08:43:24;-3275.30;74.70
37322;DHT22;23697;48.684;9.032;2023-02-28T08:45:53;-3275.30;74.00
37322;DHT22;23697;48.684;9.032;2023-02-28T08:48:22;-3275.30;73.80
37322;DHT22;23697;48.684;9.032;2023-02-28T08:50:55;-3275.30;74.00
37322;DHT22;23697;48.684;9.032;2023-02-28T08:53:22;-3275.30;74.10
37322;DHT22;23697;48.684;9.032;2023-02-28T08:55:56;-3275.30;73.80
37322;DHT22;23697;48.684;9.032;2023-02-28T08:58:23;-3275.40;73.80
37322;DHT22;23697;48.684;9.032;2023-02-28T09:00:50;-3275.40;73.70
37322;DHT22;23697;48.684;9.032;2023-02-28T09:03:18;-3275.40;73.40
37322;DHT22;23697;48.684;9.032;2023-02-28T09:05:52;-3275.40;73.30
37322;DHT22;23697;48.684;9.032;2023-02-28T09:08:19;-3275.40;73.60
37322;DHT22;23697;48.684;9.032;2023-02-28T09:10:46;-3275.50;73.50
37322;DHT22;23697;48.684;9.032;2023-02-28T09:13:13;-3275.60;73.90
37322;DHT22;23697;48.684;9.032;2023-02-28T09:15:40;-3275.60;73.20
37322;DHT22;23697;48.684;9.032;2023-02-28T09:18:07;-3275.60;73.40
37322;DHT22;23697;48.684;9.032;2023-02-28T09:20:37;-3275.70;73.60
37322;DHT22;23697;48.684;9.032;2023-02-28T09:23:04;-3275.70;72.90
37322;DHT22;23697;48.684;9.032;2023-02-28T09:25:31;-3275.70;72.50
37322;DHT22;23697;48.684;9.032;2023-02-28T09:27:57;-3275.70;73.00
37322;DHT22;23697;48.684;9.032;2023-02-28T09:30:24;-3275.80;73.10
37322;DHT22;23697;48.684;9.032;2023-02-28T09:32:51;-3275.80;73.40
37322;DHT22;23697;48.684;9.032;2023-02-28T09:35:19;-3275.90;72.50
37322;DHT22;23697;48.684;9.032;2023-02-28T09:37:48;-3275.80;71.80
37322;DHT22;23697;48.684;9.032;2023-02-28T09:40:15;-3275.80;72.00
37322;DHT22;23697;48.684;9.032;2023-02-28T09:42:46;-3275.80;72.30
37322;DHT22;23697;48.684;9.032;2023-02-28T09:45:24;-3275.80;72.30
37322;DHT22;23697;48.684;9.032;2023-02-28T09:47:56;-3275.90;72.00
37322;DHT22;23697;48.684;9.032;2023-02-28T09:50:30;-3276.00;72.10
37322;DHT22;23697;48.684;9.032;2023-02-28T09:53:02;-3276.00;72.40
37322;DHT22;23697;48.684;9.032;2023-02-28T09:55:33;-3276.10;71.60
37322;DHT22;23697;48.684;9.032;2023-02-28T09:58:00;-3276.10;70.70
37322;DHT22;23697;48.684;9.032;2023-02-28T10:00:32;-3276.20;70.90
37322;DHT22;23697;48.684;9.032;2023-02-28T10:03:20;-3276.20;70.20
37322;DHT22;23697;48.684;9.032;2023-02-28T10:05:53;-3276.10;70.60
37322;DHT22;23697;48.684;9.032;2023-02-28T10:08:26;-3276.30;71.10
37322;DHT22;23697;48.684;9.032;2023-02-28T10:10:56;-3276.40;71.00
37322;DHT22;23697;48.684;9.032;2023-02-28T10:13:28;-3276.30;70.30
37322;DHT22;23697;48.684;9.032;2023-02-28T10:16:06;-3276.30;70.10
37322;DHT22;23697;48.684;9.032;2023-02-28T10:18:42;-3276.30;70.00
37322;DHT22;23697;48.684;9.032;2023-02-28T10:21:17;-3276.40;69.90
37322;DHT22;23697;48.684;9.032;2023-02-28T10:23:48;-3276.40;69.80
37322;DHT22;23697;48.684;9.032;2023-02-28T10:26:17;-3276.50;69.50
37322;DHT22;23697;48.684;9.032;2023-02-28T10:28:44;-3276.40;69.50
37322;DHT22;23697;48.684;9.032;2023-02-28T10:31:15;-3276.50;68.90
37322;DHT22;23697;48.684;9.032;2023-02-28T10:33:43;-3276.60;70.10
37322;DHT22;23697;48.684;9.032;2023-02-28T10:36:14;0.10;68.70
37322;DHT22;23697;48.684;9.032;2023-02-28T10:38:43;0.10;67.70
37322;DHT22;23697;48.684;9.032;2023-02-28T10:41:14;0.20;67.60
37322;DHT22;23697;48.684;9.032;2023-02-28T10:43:42;0.40;67.90
37322;DHT22;23697;48.684;9.032;2023-02-28T10:46:14;0.60;66.80
37322;DHT22;23697;48.684;9.032;2023-02-28T10:49:00;0.60;65.80
37322;DHT22;23697;48.684;9.032;2023-02-28T10:51:34;0.60;65.60
37322;DHT22;23697;48.684;9.032;2023-02-28T10:54:03;0.80;66.10
37322;DHT22;23697;48.684;9.032;2023-02-28T10:56:32;1.00;65.10
37322;DHT22;23697;48.684;9.032;2023-02-28T10:59:00;1.10;65.10
37322;DHT22;23697;48.684;9.032;2023-02-28T11:01:36;1.00;63.20
37322;DHT22;23697;48.684;9.032;2023-02-28T11:04:17;0.70;63.60
37322;DHT22;23697;48.684;9.032;2023-02-28T11:06:45;0.70;64.40
37322;DHT22;23697;48.684;9.032;2023-02-28T11:09:23;0.80;63.80
37322;DHT22;23697;48.684;9.032;2023-02-28T11:11:53;0.70;64.30
37322;DHT22;23697;48.684;9.032;2023-02-28T11:14:21;0.60;64.00
37322;DHT22;23697;48.684;9.032;2023-02-28T11:16:50;0.70;64.60
37322;DHT22;23697;48.684;9.032;2023-02-28T11:19:20;0.70;63.60
37322;DHT22;23697;48.684;9.032;2023-02-28T11:21:56;0.70;64.60
37322;DHT22;23697;48.684;9.032;2023-02-28T11:24:28;0.70;64.20
37322;DHT22;23697;48.684;9.032;2023-02-28T11:26:57;0.80;64.50
37322;DHT22;23697;48.684;9.032;2023-02-28T11:29:25;0.80;63.90
37322;DHT22;23697;48.684;9.032;2023-02-28T11:32:13;0.80;63.80
37322;DHT22;23697;48.684;9.032;2023-02-28T11:34:43;1.20;63.90
37322;DHT22;23697;48.684;9.032;2023-02-28T11:37:13;1.80;63.90
37322;DHT22;23697;48.684;9.032;2023-02-28T11:39:40;2.20;62.10
37322;DHT22;23697;48.684;9.032;2023-02-28T11:42:45;2.60;61.30
37322;DHT22;23697;48.684;9.032;2023-02-28T11:45:41;2.90;59.90
37322;DHT22;23697;48.684;9.032;2023-02-28T11:48:17;2.80;58.50
37322;DHT22;23697;48.684;9.032;2023-02-28T11:50:58;2.80;58.40
37322;DHT22;23697;48.684;9.032;2023-02-28T11:53:39;3.10;59.50
37322;DHT22;23697;48.684;9.032;2023-02-28T11:56:15;3.20;57.60
37322;DHT22;23697;48.684;9.032;2023-02-28T11:58:53;3.00;56.70
37322;DHT22;23697;48.684;9.032;2023-02-28T12:01:38;2.70;57.80
37322;DHT22;23697;48.684;9.032;2023-02-28T12:04:24;2.80;58.70
37322;DHT22;23697;48.684;9.032;2023-02-28T12:06:55;3.10;59.10
37322;DHT22;23697;48.684;9.032;2023-02-28T12:09:46;3.60;58.80
37322;DHT22;23697;48.684;9.032;2023-02-28T12:12:35;4.00;56.40
37322;DHT22;23697;48.684;9.032;2023-02-28T12:15:27;3.90;56.20
37322;DHT22;23697;48.684;9.032;2023-02-28T12:18:07;3.60;56.10
37322;DHT22;23697;48.684;9.032;2023-02-28T12:20:40;3.30;56.80
37322;DHT22;23697;48.684;9.032;2023-02-28T12:23:26;2.90;57.00
37322;DHT22;23697;48.684;9.032;2023-02-28T12:26:09;2.60;58.20
37322;DHT22;23697;48.684;9.032;2023-02-28T12:28:42;2.40;59.20
37322;DHT22;23697;48.684;9.032;2023-02-28T12:31:18;2.60;59.60
37322;DHT22;23697;48.684;9.032;2023-02-28T12:33:50;3.00;59.20
37322;DHT22;23697;48.684;9.032;2023-02-28T12:36:19;3.00;57.40
37322;DHT22;23697;48.684;9.032;2023-02-28T12:38:50;2.90;57.90
37322;DHT22;23697;48.684;9.032;2023-02-28T12:41:19;2.80;58.30
37322;DHT22;23697;48.684;9.032;2023-02-28T12:43:55;2.80;57.90
37322;DHT22;23697;48.684;9.032;2023-02-28T12:46:27;2.80;58.30
37322;DHT22;23697;48.684;9.032;2023-02-28T12:48:56;2.80;58.70
37322;DHT22;23697;48.684;9.032;2023-02-28T12:51:24;3.10;59.20
37322;DHT22;23697;48.684;9.032;2023-02-28T12:54:01;3.20;57.50
37322;DHT22;23697;48.684;9.032;2023-02-28T12:56:38;3.20;56.90
37322;DHT22;23697;48.684;9.032;2023-02-28T12:59:15;3.10;57.90
37322;DHT22;23697;48.684;9.032;2023-02-28T13:02:02;3.30;57.10
37322;DHT22;23697;48.684;9.032;2023-02-28T13:04:56;3.60;57.90
37322;DHT22;23697;48.684;9.032;2023-02-28T13:10:06;3.70;55.10
37322;DHT22;23697;48.684;9.032;2023-02-28T13:12:34;3.60;55.70
37322;DHT22;23697;48.684;9.032;2023-02-28T13:15:05;3.80;56.60
37322;DHT22;23697;48.684;9.032;2023-02-28T13:17:39;4.00;56.20
37322;DHT22;23697;48.684;9.032;2023-02-28T13:20:16;4.20;54.70
37322;DHT22;23697;48.684;9.032;2023-02-28T13:22:45;4.20;54.20
37322;DHT22;23697;48.684;9.032;2023-02-28T13:34:41;4.70;54.00
37322;DHT22;23697;48.684;9.032;2023-02-28T13:37:32;4.60;53.40
37322;DHT22;23697;48.684;9.032;2023-02-28T13:40:22;4.40;53.70
37322;DHT22;23697;48.684;9.032;2023-02-28T13:42:52;4.30;53.40
37322;DHT22;23697;48.684;9.032;2023-02-28T13:45:23;4.20;53.70
37322;DHT22;23697;48.684;9.032;2023-02-28T13:47:56;4.20;53.80
37322;DHT22;23697;48.684;9.032;2023-02-28T13:50:31;4.20;54.30
37322;DHT22;23697;48.684;9.032;2023-02-28T13:55:52;4.20;54.00
37322;DHT22;23697;48.684;9.032;2023-02-28T13:58:33;4.10;54.10
37322;DHT22;23697;48.684;9.032;2023-02-28T14:04:42;4.50;54.00
37322;DHT22;23697;48.684;9.032;2023-02-28T14:07:19;4.40;54.20
37322;DHT22;23697;48.684;9.032;2023-02-28T14:09:56;4.60;53.30
37322;DHT22;23697;48.684;9.032;2023-02-28T14:12:55;4.70;53.50
37322;DHT22;23697;48.684;9.032;2023-02-28T14:15:34;4.50;52.50
37322;DHT22;23697;48.684;9.032;2023-02-28T14:18:05;4.30;53.20
37322;DHT22;23697;48.684;9.032;2023-02-28T14:20:40;4.30;54.10
37322;DHT22;23697;48.684;9.032;2023-02-28T14:23:14;4.50;53.50
37322;DHT22;23697;48.684;9.032;2023-02-28T14:25:47;4.60;53.30
37322;DHT22;23697;48.684;9.032;2023-02-28T14:28:26;4.60;54.00
37322;DHT22;23697;48.684;9.032;2023-02-28T14:31:03;4.60;53.40
37322;DHT22;23697;48.684;9.032;2023-02-28T14:33:46;4.60;52.90
37322;DHT22;23697;48.684;9.032;2023-02-28T14:36:20;4.50;53.20
37322;DHT22;23697;48.684;9.032;2023-02-28T14:38:52;4.50;53.90
37322;DHT22;23697;48.684;9.032;2023-02-28T14:41:22;4.60;53.70
37322;DHT22;23697;48.684;9.032;2023-02-28T14:43:52;4.70;53.10
37322;DHT22;23697;48.684;9.032;2023-02-28T14:46:20;4.80;53.20
37322;DHT22;23697;48.684;9.032;2023-02-28T14:48:48;4.60;52.50
37322;DHT22;23697;48.684;9.032;2023-02-28T14:51:19;4.50;52.80
37322;DHT22;23697;48.684;9.032;2023-02-28T14:53:51;4.50;52.70
37322;DHT22;23697;48.684;9.032;2023-02-28T14:56:23;4.40;53.10
37322;DHT22;23697;48.684;9.032;2023-02-28T14:58:52;4.50;53.20
37322;DHT22;23697;48.684;9.032;2023-02-28T15:01:21;4.50;52.90
37322;DHT22;23697;48.684;9.032;2023-02-28T15:03:57;4.40;53.70
37322;DHT22;23697;48.684;9.032;2023-02-28T15:06:24;4.50;53.90
37322;DHT22;23697;48.684;9.032;2023-02-28T15:11:47;4.60;53.30
37322;DHT22;23697;48.684;9.032;2023-02-28T15:14:19;4.60;52.40
37322;DHT22;23697;48.684;9.032;2023-02-28T15:16:48;4.70;53.20
37322;DHT22;23697;48.684;9.032;2023-02-28T15:19:20;4.70;52.50
37322;DHT22;23697;48.684;9.032;2023-02-28T15:21:53;4.60;52.10
37322;DHT22;23697;48.684;9.032;2023-02-28T15:24:26;4.60;52.80
37322;DHT22;23697;48.684;9.032;2023-02-28T15:26:58;4.50;52.70
37322;DHT22;23697;48.684;9.032;2023-02-28T15:29:28;4.50;52.70
37322;DHT22;23697;48.684;9.032;2023-02-28T15:31:58;4.50;53.30
37322;DHT22;23697;48.684;9.032;2023-02-28T15:34:31;4.50;53.00
37322;DHT22;23697;48.684;9.032;2023-02-28T15:36:59;4.60;52.90
37322;DHT22;23697;48.684;9.032;2023-02-28T15:39:28;4.60;53.10
37322;DHT22;23697;48.684;9.032;2023-02-28T15:42:12;4.60;52.90
37322;DHT22;23697;48.684;9.032;2023-02-28T15:44:39;4.60;52.90
37322;DHT22;23697;48.684;9.032;2023-02-28T15:47:14;4.50;53.60
37322;DHT22;23697;48.684;9.032;2023-02-28T15:49:47;4.50;53.50
37322;DHT22;23697;48.684;9.032;2023-02-28T15:52:17;4.40;52.80
37322;DHT22;23697;48.684;9.032;2023-02-28T15:54:46;4.20;53.40
37322;DHT22;23697;48.684;9.032;2023-02-28T15:57:17;4.10;53.80
37322;DHT22;23697;48.684;9.032;2023-02-28T15:59:50;4.00;54.30
37322;DHT22;23697;48.684;9.032;2023-02-28T16:02:19;4.00;54.20
37322;DHT22;23697;48.684;9.032;2023-02-28T16:04:59;3.90;54.50
37322;DHT22;23697;48.684;9.032;2023-02-28T16:07:26;3.90;54.50
37322;DHT22;23697;48.684;9.032;2023-02-28T16:09:53;3.90;54.50
37322;DHT22;23697;48.684;9.032;2023-02-28T16:12:25;3.80;54.80
37322;DHT22;23697;48.684;9.032;2023-02-28T16:14:54;3.80;55.20
37322;DHT22;23697;48.684;9.032;2023-02-28T16:17:24;3.80;55.00
37322;DHT22;23697;48.684;9.032;2023-02-28T16:19:52;3.70;55.30
37322;DHT22;23697;48.684;9.032;2023-02-28T16:22:19;3.60;55.40
37322;DHT22;23697;48.684;9.032;2023-02-28T16:24:45;3.60;55.60
37322;DHT22;23697;48.684;9.032;2023-02-28T16:27:18;3.60;55.50
37322;DHT22;23697;48.684;9.032;2023-02-28T16:29:48;3.50;56.00
37322;DHT22;23697;48.684;9.032;2023-02-28T16:32:18;3.50;56.60
37322;DHT22;23697;48.684;9.032;2023-02-28T16:34:45;3.50;56.00
37322;DHT22;23697;48.684;9.032;2023-02-28T16:37:13;3.40;56.40
37322;DHT22;23697;48.684;9.032;2023-02-28T16:39:41;3.20;56.70
37322;DHT22;23697;48.684;9.032;2023-02-28T16:42:14;3.20;57.10
37322;DHT22;23697;48.684;9.032;2023-02-28T16:44:42;3.10;57.50
37322;DHT22;23697;48.684;9.032;2023-02-28T16:47:10;3.00;57.70
37322;DHT22;23697;48.684;9.032;2023-02-28T16:49:38;2.90;58.30
37322;DHT22;23697;48.684;9.032;2023-02-28T16:52:07;2.80;58.20
37322;DHT22;23697;48.684;9.032;2023-02-28T16:54:34;2.80;58.60
37322;DHT22;23697;48.684;9.032;2023-02-28T16:57:02;2.70;59.00
37322;DHT22;23697;48.684;9.032;2023-02-28T16:59:29;2.60;59.30
37322;DHT22;23697;48.684;9.032;2023-02-28T17:01:57;2.60;59.50
37322;DHT22;23697;48.684;9.032;2023-02-28T17:04:26;2.60;59.70
37322;DHT22;23697;48.684;9.032;2023-02-28T17:06:53;2.50;60.00
37322;DHT22;23697;48.684;9.032;2023-02-28T17:09:21;2.30;60.40
37322;DHT22;23697;48.684;9.032;2023-02-28T17:11:49;2.30;60.90
37322;DHT22;23697;48.684;9.032;2023-02-28T17:14:16;2.20;60.90
37322;DHT22;23697;48.684;9.032;2023-02-28T17:16:42;2.20;61.00
37322;DHT22;23697;48.684;9.032;2023-02-28T17:19:13;2.20;61.10
37322;DHT22;23697;48.684;9.032;2023-02-28T17:21:41;2.10;61.20
37322;DHT22;23697;48.684;9.032;2023-02-28T17:24:09;2.10;61.40
37322;DHT22;23697;48.684;9.032;2023-02-28T17:26:39;2.10;61.40
37322;DHT22;23697;48.684;9.032;2023-02-28T17:29:13;2.00;61.70
37322;DHT22;23697;48.684;9.032;2023-02-28T17:31:40;1.90;62.00
37322;DHT22;23697;48.684;9.032;2023-02-28T17:34:07;1.80;62.30
37322;DHT22;23697;48.684;9.032;2023-02-28T17:36:35;1.80;62.40
37322;DHT22;23697;48.684;9.032;2023-02-28T17:39:04;1.70;62.70
37322;DHT22;23697;48.684;9.032;2023-02-28T17:41:32;1.70;62.80
37322;DHT22;23697;48.684;9.032;2023-02-28T17:43:59;1.70;63.00
37322;DHT22;23697;48.684;9.032;2023-02-28T17:46:26;1.70;63.10
37322;DHT22;23697;48.684;9.032;2023-02-28T17:48:54;1.60;63.20
37322;DHT22;23697;48.684;9.032;2023-02-28T17:51:23;1.50;63.50
37322;DHT22;23697;48.684;9.032;2023-02-28T17:53:50;1.50;63.60
37322;DHT22;23697;48.684;9.032;2023-02-28T17:56:20;1.50;63.80
37322;DHT22;23697;48.684;9.032;2023-02-28T17:58:47;1.50;64.10
37322;DHT22;23697;48.684;9.032;2023-02-28T18:01:14;1.40;64.20
37322;DHT22;23697;48.684;9.032;2023-02-28T18:03:41;1.50;64.00
37322;DHT22;23697;48.684;9.032;2023-02-28T18:06:14;1.40;64.10
37322;DHT22;23697;48.684;9.032;2023-02-28T18:08:42;1.40;64.00
37322;DHT22;23697;48.684;9.032;2023-02-28T18:11:09;1.40;64.00
37322;DHT22;23697;48.684;9.032;2023-02-28T18:13:44;1.50;64.00
37322;DHT22;23697;48.684;9.032;2023-02-28T18:16:12;1.40;64.20
37322;DHT22;23697;48.684;9.032;2023-02-28T18:18:39;1.30;64.50
37322;DHT22;23697;48.684;9.032;2023-02-28T18:21:07;1.20;64.70
37322;DHT22;23697;48.684;9.032;2023-02-28T18:23:34;1.10;65.00
37322;DHT22;23697;48.684;9.032;2023-02-28T18:26:06;1.10;65.20
37322;DHT22;23697;48.684;9.032;2023-02-28T18:28:33;1.10;65.40
37322;DHT22;23697;48.684;9.032;2023-02-28T18:31:06;1.10;65.50
37322;DHT22;23697;48.684;9.032;2023-02-28T18:33:34;1.10;65.50
37322;DHT22;23697;48.684;9.032;2023-02-28T18:36:01;1.00;65.50
37322;DHT22;23697;48.684;9.032;2023-02-28T18:38:28;1.00;65.70
37322;DHT22;23697;48.684;9.032;2023-02-28T18:40:56;0.90;65.80
37322;DHT22;23697;48.684;9.032;2023-02-28T18:43:23;0.90;66.00
37322;DHT22;23697;48.684;9.032;2023-02-28T18:45:50;0.90;66.10
37322;DHT22;23697;48.684;9.032;2023-02-28T18:48:19;0.80;66.20
37322;DHT22;23697;48.684;9.032;2023-02-28T18:50:47;0.80;66.30
37322;DHT22;23697;48.684;9.032;2023-02-28T18:53:14;0.60;66.60
37322;DHT22;23697;48.684;9.032;2023-02-28T18:55:42;0.60;66.70
37322;DHT22;23697;48.684;9.032;2023-02-28T18:58:08;0.60;66.90
37322;DHT22;23697;48.684;9.032;2023-02-28T19:00:36;0.60;67.10
37322;DHT22;23697;48.684;9.032;2023-02-28T19:03:03;0.50;67.10
37322;DHT22;23697;48.684;9.032;2023-02-28T19:05:31;0.50;67.50
37322;DHT22;23697;48.684;9.032;2023-02-28T19:07:59;0.40;67.60
37322;DHT22;23697;48.684;9.032;2023-02-28T19:10:26;0.40;67.80
37322;DHT22;23697;48.684;9.032;2023-02-28T19:12:53;0.30;67.90
37322;DHT22;23697;48.684;9.032;2023-02-28T19:15:21;0.20;68.20
37322;DHT22;23697;48.684;9.032;2023-02-28T19:17:48;0.20;68.50
37322;DHT22;23697;48.684;9.032;2023-02-28T19:20:15;0.20;68.60
37322;DHT22;23697;48.684;9.032;2023-02-28T19:22:43;0.10;68.80
37322;DHT22;23697;48.684;9.032;2023-02-28T19:25:10;0.10;69.30
37322;DHT22;23697;48.684;9.032;2023-02-28T19:27:38;0.10;69.60